Time;durP1;ratioP1;P1;durP2;ratioP2;P2;SDS_P1;SDS_P2;PMS_P1;PMS_P2;Temp;Humidity;BMP_temperature;BMP_pressure;BME280_temperature;BME280_humidity;BME280_pressure;Samples;Min_cycle;Max_cycle;Signal;HPM_P1;HPM_P2
2024/02/08 00:02:11;;;;;;;11.00;10.77;;;21.20;51.90;;;;;;5043170;28;20511;-64
2024/02/08 00:04:40;;;;;;;11.40;11.00;;;21.20;51.90;;;;;;5042995;28;21159;-64
2024/02/08 00:07:06;;;;;;;11.03;10.80;;;21.20;52.00;;;;;;5038503;28;20484;-64
2024/02/08 00:09:33;;;;;;;11.43;11.10;;;21.20;51.90;;;;;;5046989;28;20472;-64
2024/02/08 00:12:02;;;;;;;11.30;11.00;;;21.10;51.80;;;;;;5040055;28;20475;-63
2024/02/08 00:14:28;;;;;;;11.90;11.60;;;21.10;51.80;;;;;;5039879;28;20581;-63
2024/02/08 00:16:55;;;;;;;10.73;10.40;;;21.20;51.90;;;;;;5043201;28;20526;-63
2024/02/08 00:19:22;;;;;;;11.10;10.80;;;21.10;51.90;;;;;;5042960;28;20441;-63
2024/02/08 00:21:50;;;;;;;11.13;10.83;;;21.10;51.90;;;;;;5041465;28;20507;-64
2024/02/08 00:24:19;;;;;;;10.90;10.70;;;21.10;51.90;;;;;;5039263;28;20477;-63
2024/02/08 00:26:45;;;;;;;11.30;11.00;;;21.10;51.90;;;;;;5039834;28;20564;-64
2024/02/08 00:29:12;;;;;;;11.37;11.07;;;21.10;51.90;;;;;;5046714;28;20467;-64
2024/02/08 00:31:39;;;;;;;10.70;10.40;;;21.10;51.90;;;;;;5042935;28;20479;-63
2024/02/08 00:34:06;;;;;;;12.90;12.60;;;21.10;51.90;;;;;;5042487;28;20480;-63
2024/02/08 00:36:33;;;;;;;11.40;11.10;;;21.10;51.90;;;;;;5042735;28;20483;-64
2024/02/08 00:39:06;;;;;;;10.70;10.40;;;21.10;51.90;;;;;;5040085;28;20494;-63
2024/02/08 00:41:34;;;;;;;9.80;9.60;;;21.10;51.90;;;;;;5041037;28;20448;-64
2024/02/08 00:44:00;;;;;;;9.70;9.50;;;21.10;51.90;;;;;;5042484;28;20508;-63
2024/02/08 00:46:27;;;;;;;10.30;10.00;;;21.10;51.90;;;;;;5042639;28;20476;-64
2024/02/08 00:48:54;;;;;;;10.33;10.10;;;21.10;51.90;;;;;;5042084;28;20482;-64
2024/02/08 00:51:21;;;;;;;10.20;10.00;;;21.10;51.90;;;;;;5042711;28;20968;-64
2024/02/08 00:53:48;;;;;;;11.20;10.90;;;21.10;51.90;;;;;;5044898;28;20456;-64
2024/02/08 00:56:16;;;;;;;10.83;10.53;;;21.10;51.90;;;;;;5046058;28;20471;-62
2024/02/08 00:58:44;;;;;;;10.77;10.17;;;21.10;52.00;;;;;;5045970;28;20476;-64
2024/02/08 01:01:11;;;;;;;10.30;10.10;;;21.10;52.00;;;;;;5042677;28;20445;-63
2024/02/08 01:03:38;;;;;;;11.20;10.73;;;21.10;51.90;;;;;;5042489;28;20536;-64
2024/02/08 01:06:05;;;;;;;10.60;10.30;;;21.10;51.90;;;;;;5045965;28;20475;-64
2024/02/08 01:08:33;;;;;;;10.70;10.40;;;21.10;52.00;;;;;;5046063;28;20955;-64
2024/02/08 01:10:59;;;;;;;9.80;9.60;;;21.10;51.90;;;;;;5043425;28;20523;-64
2024/02/08 01:13:29;;;;;;;10.20;10.00;;;21.10;51.90;;;;;;5048111;28;20506;-64
2024/02/08 01:15:56;;;;;;;10.70;10.43;;;21.10;52.00;;;;;;5045409;28;20455;-61
2024/02/08 01:18:24;;;;;;;10.30;10.00;;;21.10;52.00;;;;;;5046025;28;20535;-64
2024/02/08 01:20:51;;;;;;;10.27;9.97;;;21.10;52.00;;;;;;5045896;28;20445;-63
2024/02/08 01:23:19;;;;;;;9.80;9.60;;;21.10;51.90;;;;;;5045508;28;20511;-64
2024/02/08 01:25:47;;;;;;;10.60;10.30;;;21.10;51.90;;;;;;5042761;28;20465;-62
2024/02/08 01:28:14;;;;;;;9.90;9.70;;;21.10;51.90;;;;;;5049760;28;20932;-64
2024/02/08 01:30:42;;;;;;;9.67;9.47;;;21.10;51.90;;;;;;5042156;28;20970;-64
2024/02/08 01:33:11;;;;;;;10.30;10.00;;;21.10;52.50;;;;;;5045248;28;20491;-63
2024/02/08 01:35:39;;;;;;;10.80;10.40;;;21.10;51.90;;;;;;5042240;28;20449;-62
2024/02/08 01:38:07;;;;;;;10.50;10.20;;;21.10;52.00;;;;;;5050118;28;20827;-64
2024/02/08 01:40:35;;;;;;;9.87;9.67;;;21.00;51.90;;;;;;5041901;28;20531;-64
2024/02/08 01:43:04;;;;;;;10.43;10.17;;;21.00;51.90;;;;;;5043927;28;20513;-62
2024/02/08 01:45:34;;;;;;;10.20;9.90;;;21.00;51.90;;;;;;5045295;28;20943;-64
2024/02/08 01:48:05;;;;;;;11.10;10.50;;;21.10;51.90;;;;;;5044161;28;20477;-64
2024/02/08 01:50:35;;;;;;;10.97;10.67;;;21.00;51.90;;;;;;5042347;28;20956;-65
2024/02/08 01:53:03;;;;;;;10.40;10.10;;;21.00;51.80;;;;;;5049742;28;20460;-65
2024/02/08 01:55:33;;;;;;;9.97;9.77;;;21.10;51.90;;;;;;5048083;28;20437;-64
2024/02/08 01:58:02;;;;;;;11.20;10.90;;;21.00;51.80;;;;;;5042841;28;20511;-64
2024/02/08 02:00:36;;;;;;;10.30;10.10;;;21.00;51.90;;;;;;5040424;28;20472;-64
2024/02/08 02:03:09;;;;;;;10.07;9.87;;;21.00;51.90;;;;;;5044867;28;20496;-64
2024/02/08 02:05:41;;;;;;;10.50;10.20;;;21.00;51.90;;;;;;5045157;28;20944;-62
2024/02/08 02:08:08;;;;;;;10.80;10.50;;;21.00;51.90;;;;;;5035670;28;20444;-64
2024/02/08 02:10:35;;;;;;;10.40;10.10;;;21.00;51.90;;;;;;5043164;28;20475;-64
2024/02/08 02:13:08;;;;;;;10.73;10.43;;;21.00;51.90;;;;;;5042250;28;20530;-63
2024/02/08 02:15:37;;;;;;;11.37;11.00;;;21.00;51.90;;;;;;5048236;28;20511;-64
2024/02/08 02:18:09;;;;;;;11.00;10.70;;;21.00;51.80;;;;;;5037451;28;20441;-63
2024/02/08 02:20:36;;;;;;;11.27;10.77;;;21.00;51.90;;;;;;5046048;28;20806;-64
2024/02/08 02:23:09;;;;;;;10.30;10.10;;;21.00;51.90;;;;;;5043422;28;20520;-63
2024/02/08 02:25:38;;;;;;;11.17;10.87;;;21.00;51.90;;;;;;5041637;28;20436;-63
2024/02/08 02:28:08;;;;;;;10.57;10.37;;;21.00;51.90;;;;;;5049180;28;20448;-63
2024/02/08 02:30:36;;;;;;;9.80;9.60;;;21.00;51.90;;;;;;5040910;28;20442;-63
2024/02/08 02:33:06;;;;;;;10.80;10.53;;;21.00;51.90;;;;;;5043115;28;21026;-63
2024/02/08 02:35:33;;;;;;;10.93;10.63;;;21.00;51.90;;;;;;5042351;28;20471;-63
2024/02/08 02:38:02;;;;;;;11.07;10.77;;;21.00;51.90;;;;;;5049006;28;20536;-63
2024/02/08 02:40:30;;;;;;;10.57;10.27;;;21.00;51.90;;;;;;5040813;28;20445;-64
2024/02/08 02:42:58;;;;;;;9.60;9.40;;;21.00;51.90;;;;;;5041873;28;20491;-62
2024/02/08 02:45:28;;;;;;;10.27;9.97;;;21.00;51.90;;;;;;5044229;28;20440;-62
2024/02/08 02:47:56;;;;;;;10.80;10.40;;;21.00;51.90;;;;;;5041677;28;20941;-63
2024/02/08 02:50:24;;;;;;;10.60;10.20;;;21.00;51.90;;;;;;5047336;28;20883;-65
2024/02/08 02:52:51;;;;;;;9.70;9.50;;;21.00;51.90;;;;;;5048742;28;20484;-64
2024/02/08 02:55:19;;;;;;;10.10;9.80;;;21.00;51.90;;;;;;5044826;28;20468;-63
2024/02/08 02:57:47;;;;;;;11.60;11.30;;;21.00;51.90;;;;;;5043927;28;20445;-63
2024/02/08 03:00:22;;;;;;;10.47;10.20;;;21.00;51.90;;;;;;5043581;28;20447;-63
2024/02/08 03:02:50;;;;;;;10.70;10.40;;;21.00;51.90;;;;;;5043717;28;20486;-63
2024/02/08 03:05:20;;;;;;;10.43;10.23;;;21.00;51.90;;;;;;5043705;28;20436;-63
2024/02/08 03:07:48;;;;;;;11.00;10.70;;;21.00;51.90;;;;;;5043680;28;20463;-63
2024/02/08 03:10:15;;;;;;;11.00;10.70;;;21.00;52.00;;;;;;5043966;28;21005;-63
2024/02/08 03:12:42;;;;;;;11.20;10.90;;;21.00;51.90;;;;;;5035813;28;20901;-63
2024/02/08 03:15:11;;;;;;;11.13;10.70;;;21.00;51.90;;;;;;5048273;28;20471;-62
2024/02/08 03:17:39;;;;;;;10.73;10.43;;;21.00;51.90;;;;;;5040131;28;20947;-64
2024/02/08 03:20:08;;;;;;;10.30;10.00;;;21.00;51.90;;;;;;5042418;28;20954;-63
2024/02/08 03:22:36;;;;;;;10.83;10.53;;;21.00;51.90;;;;;;5043448;28;20468;-64
2024/02/08 03:25:04;;;;;;;11.53;11.23;;;21.00;51.90;;;;;;5035183;28;20477;-63
2024/02/08 03:27:33;;;;;;;11.40;11.00;;;21.00;51.80;;;;;;5045926;28;20441;-63
2024/02/08 03:30:02;;;;;;;10.70;10.40;;;21.00;51.80;;;;;;5041274;28;20437;-63
2024/02/08 03:32:31;;;;;;;10.63;10.33;;;21.00;51.80;;;;;;5040252;28;20878;-64
2024/02/08 03:34:59;;;;;;;11.50;11.20;;;21.00;51.80;;;;;;5048004;28;20480;-63
2024/02/08 03:37:28;;;;;;;11.47;10.97;;;21.00;51.80;;;;;;5040012;28;20452;-64
2024/02/08 03:39:55;;;;;;;11.13;10.83;;;21.00;51.80;;;;;;5040556;28;20528;-63
2024/02/08 03:42:22;;;;;;;10.67;10.37;;;21.00;51.90;;;;;;5041389;28;20460;-64
2024/02/08 03:44:50;;;;;;;10.13;9.93;;;21.00;51.90;;;;;;5047754;28;20507;-64
2024/02/08 03:47:18;;;;;;;11.70;11.30;;;21.00;51.90;;;;;;5043545;28;20811;-64
2024/02/08 03:49:51;;;;;;;11.20;10.90;;;21.00;51.90;;;;;;5043231;28;20535;-64
2024/02/08 03:52:19;;;;;;;10.50;10.20;;;21.00;51.90;;;;;;5043683;28;20460;-63
2024/02/08 03:54:46;;;;;;;11.17;10.77;;;21.00;51.90;;;;;;5039036;28;20440;-64
2024/02/08 03:57:14;;;;;;;11.20;10.80;;;21.00;51.90;;;;;;5047838;28;20437;-63
2024/02/08 03:59:42;;;;;;;11.07;10.77;;;21.00;51.90;;;;;;5046652;28;20443;-62
2024/02/08 04:02:10;;;;;;;12.20;11.90;;;21.00;51.90;;;;;;5040257;28;21154;-63
2024/02/08 04:07:34;;;;;;;11.63;11.20;;;21.00;52.00;;;;;;5039323;28;21122;-64
2024/02/08 04:10:18;;;;;;;11.00;10.70;;;21.00;52.00;;;;;;5043079;28;20455;-64
2024/02/08 04:53:56;;;;;;;11.00;10.70;;;21.00;52.10;;;;;;5051188;28;20455;-64
2024/02/08 04:56:25;;;;;;;12.53;12.03;;;21.00;52.10;;;;;;5038104;28;20520;-63
2024/02/08 04:58:51;;;;;;;11.80;11.40;;;21.00;52.10;;;;;;5042690;28;20491;-64
2024/02/08 05:01:20;;;;;;;12.47;12.07;;;21.00;52.10;;;;;;5042787;28;20948;-65
2024/02/08 05:03:47;;;;;;;12.23;11.73;;;21.00;52.10;;;;;;5042624;28;20509;-64
2024/02/08 05:06:18;;;;;;;11.93;11.43;;;21.00;52.00;;;;;;5051021;28;20936;-65
2024/02/08 05:08:47;;;;;;;11.97;11.57;;;21.00;52.10;;;;;;5044826;28;20780;-64
2024/02/08 05:11:15;;;;;;;12.17;11.87;;;21.00;52.10;;;;;;5042845;28;21154;-64
2024/02/08 05:13:49;;;;;;;13.33;12.93;;;21.00;52.10;;;;;;5042416;28;20461;-65
2024/02/08 05:16:17;;;;;;;11.93;11.63;;;21.00;52.10;;;;;;5050900;28;20494;-65
2024/02/08 05:18:45;;;;;;;12.10;11.70;;;21.00;52.10;;;;;;5042692;28;20472;-64
2024/02/08 05:21:12;;;;;;;11.80;11.50;;;21.10;52.20;;;;;;5041173;28;20487;-65
2024/02/08 05:23:40;;;;;;;12.50;12.10;;;21.10;52.10;;;;;;5047417;28;20512;-65
2024/02/08 05:26:09;;;;;;;13.53;12.83;;;21.10;52.10;;;;;;5044193;28;20458;-65
2024/02/08 05:28:37;;;;;;;12.10;11.63;;;21.10;52.10;;;;;;5046728;28;20473;-65
2024/02/08 05:31:05;;;;;;;12.13;11.83;;;21.10;52.10;;;;;;5050317;28;20468;-65
2024/02/08 05:33:33;;;;;;;12.70;12.30;;;21.10;52.20;;;;;;5042185;28;20988;-65
2024/02/08 05:36:06;;;;;;;11.70;11.40;;;21.10;52.10;;;;;;5045098;28;20447;-65
2024/02/08 05:38:37;;;;;;;12.77;12.47;;;21.10;52.10;;;;;;5047393;28;20472;-65
2024/02/08 05:41:06;;;;;;;11.70;11.30;;;21.10;52.10;;;;;;5043775;28;20523;-65
2024/02/08 05:43:41;;;;;;;12.60;12.30;;;21.10;52.10;;;;;;5041747;28;20492;-65
2024/02/08 05:46:10;;;;;;;12.60;12.30;;;21.10;52.10;;;;;;5047599;28;20441;-64
2024/02/08 05:48:39;;;;;;;12.70;12.40;;;21.10;52.10;;;;;;5047654;28;20595;-65
2024/02/08 05:51:11;;;;;;;12.10;11.80;;;21.10;52.70;;;;;;5049927;28;20527;-64
2024/02/08 05:53:40;;;;;;;13.43;13.00;;;21.10;52.10;;;;;;5047704;28;20543;-65
2024/02/08 05:56:08;;;;;;;13.53;13.03;;;21.10;52.20;;;;;;5043074;28;20448;-65
2024/02/08 05:58:37;;;;;;;14.83;14.13;;;21.10;52.50;;;;;;5041809;28;20456;-64
2024/02/08 06:01:16;;;;;;;14.00;13.60;;;21.10;53.10;;;;;;5044870;28;20499;-65
2024/02/08 06:03:46;;;;;;;13.37;12.87;;;21.10;53.80;;;;;;5045018;28;20494;-64
2024/02/08 06:06:17;;;;;;;15.43;14.80;;;21.20;54.60;;;;;;5042463;28;20837;-67
2024/02/08 06:08:46;;;;;;;13.80;12.83;;;21.20;55.80;;;;;;5048156;28;20487;-63
2024/02/08 06:11:19;;;;;;;13.90;13.30;;;21.20;57.40;;;;;;5046068;28;20520;-62
2024/02/08 06:13:54;;;;;;;14.77;13.70;;;21.30;57.70;;;;;;5070288;22;20921;-67
2024/02/08 06:16:33;;;;;;;13.70;13.20;;;21.30;58.00;;;;;;5044926;28;20459;-71
2024/02/08 06:19:04;;;;;;;16.37;14.60;;;21.30;58.20;;;;;;5043543;28;20932;-71
2024/02/08 06:24:32;;;;;;;14.53;13.70;;;21.30;57.90;;;;;;5041786;28;20512;-67
2024/02/08 06:27:01;;;;;;;15.03;13.90;;;21.30;58.00;;;;;;5047813;28;20463;-68
2024/02/08 06:29:38;;;;;;;17.37;15.87;;;21.30;58.00;;;;;;5045598;28;20448;-68
2024/02/08 06:32:23;;;;;;;14.70;13.70;;;21.30;57.80;;;;;;5043257;28;20462;-68
2024/02/08 06:34:55;;;;;;;13.20;12.30;;;21.30;57.80;;;;;;5040694;28;20536;-68
2024/02/08 06:37:31;;;;;;;14.03;13.33;;;21.30;57.50;;;;;;5040430;28;20819;-67
2024/02/08 06:39:57;;;;;;;15.60;14.40;;;21.30;57.20;;;;;;5040781;28;20528;-68
2024/02/08 06:43:15;;;;;;;14.20;13.20;;;21.30;57.00;;;;;;5044091;28;20440;-67
2024/02/08 06:46:09;;;;;;;13.97;13.47;;;21.30;56.70;;;;;;5040519;28;20505;-66
2024/02/08 06:48:48;;;;;;;16.00;15.00;;;21.30;56.50;;;;;;5040778;28;20747;-67
2024/02/08 07:37:59;;;;;;;13.80;13.20;;;21.20;54.30;;;;;;5043301;28;20467;-66
2024/02/08 07:40:27;;;;;;;13.90;13.30;;;21.20;54.20;;;;;;5043028;28;20456;-66
2024/02/08 07:45:37;;;;;;;14.20;13.50;;;21.20;54.10;;;;;;5039493;28;20492;-66
2024/02/08 07:48:10;;;;;;;13.40;13.00;;;21.20;54.10;;;;;;5040266;28;20503;-67
2024/02/08 07:50:44;;;;;;;13.97;13.37;;;21.20;54.00;;;;;;5043096;28;20455;-67
2024/02/08 07:53:19;;;;;;;14.30;13.70;;;21.20;54.00;;;;;;5041277;28;20463;-67
2024/02/08 07:55:53;;;;;;;13.83;13.13;;;21.20;53.90;;;;;;5039612;28;20476;-67
2024/02/08 07:58:20;;;;;;;13.40;12.90;;;21.20;53.80;;;;;;5042751;28;20444;-66
2024/02/08 08:00:49;;;;;;;14.33;13.60;;;21.20;53.80;;;;;;5047099;28;20472;-66
2024/02/08 08:03:16;;;;;;;13.37;12.87;;;21.20;53.80;;;;;;5044798;28;20971;-67
2024/02/08 08:05:45;;;;;;;14.27;13.77;;;21.20;53.70;;;;;;5043542;28;20535;-67
2024/02/08 08:08:24;;;;;;;14.53;14.03;;;21.20;53.70;;;;;;5045090;28;20441;-67
2024/02/08 08:10:56;;;;;;;15.00;14.30;;;21.20;53.60;;;;;;5046935;28;20527;-67
2024/02/08 08:13:50;;;;;;;14.60;14.10;;;21.20;53.60;;;;;;5043457;28;20971;-67
2024/02/08 08:19:09;;;;;;;15.30;14.23;;;21.20;53.50;;;;;;5003682;28;20442;-67
2024/02/08 08:24:25;;;;;;;14.80;14.20;;;21.10;53.40;;;;;;5045282;28;20476;-67
2024/02/08 08:27:06;;;;;;;15.10;14.33;;;21.10;53.30;;;;;;5046998;28;20939;-67
2024/02/08 08:29:42;;;;;;;15.00;14.50;;;21.10;53.30;;;;;;5043318;28;20456;-67
2024/02/08 08:37:40;;;;;;;14.93;14.43;;;21.10;53.20;;;;;;5043046;28;20424;-67
2024/02/08 08:40:25;;;;;;;14.17;13.60;;;21.10;53.20;;;;;;5043635;28;20467;-67
2024/02/08 08:42:57;;;;;;;14.00;13.50;;;21.10;53.20;;;;;;5046250;28;20934;-67
2024/02/08 08:45:25;;;;;;;14.27;13.83;;;21.10;53.20;;;;;;5043010;28;20862;-67
2024/02/08 08:47:52;;;;;;;13.73;13.30;;;21.10;53.10;;;;;;5042822;28;20487;-67
2024/02/08 08:50:19;;;;;;;15.83;15.23;;;21.10;53.10;;;;;;5045077;28;20441;-67
2024/02/08 08:52:50;;;;;;;14.60;14.10;;;21.10;53.10;;;;;;5046086;28;20501;-67
2024/02/08 08:55:21;;;;;;;14.73;14.27;;;21.10;53.00;;;;;;5043992;28;20440;-67
2024/02/08 08:57:53;;;;;;;14.20;13.80;;;21.10;53.00;;;;;;5042685;28;20472;-67
2024/02/08 09:00:31;;;;;;;14.50;14.07;;;21.10;53.00;;;;;;5045084;28;20452;-67
2024/02/08 09:02:59;;;;;;;14.60;13.90;;;21.10;53.00;;;;;;5045916;28;20480;-67
2024/02/08 09:05:31;;;;;;;14.03;13.50;;;21.10;52.90;;;;;;5042417;28;21112;-67
2024/02/08 09:07:59;;;;;;;14.43;13.93;;;21.10;52.90;;;;;;5042567;28;20441;-67
2024/02/08 09:10:33;;;;;;;14.83;14.30;;;21.00;52.80;;;;;;5044189;28;20476;-67
2024/02/08 09:13:00;;;;;;;13.70;13.30;;;21.10;52.90;;;;;;5045800;28;20547;-67
2024/02/08 09:15:29;;;;;;;14.13;13.73;;;21.10;52.90;;;;;;5042297;28;20440;-67
2024/02/08 09:17:58;;;;;;;14.17;13.77;;;21.00;52.80;;;;;;5042352;28;20823;-67
2024/02/08 09:20:28;;;;;;;14.00;13.50;;;21.10;52.80;;;;;;5045087;28;20818;-67
2024/02/08 09:22:57;;;;;;;14.03;13.63;;;21.10;52.80;;;;;;5045559;28;20444;-68
2024/02/08 09:25:25;;;;;;;13.90;13.50;;;21.00;52.70;;;;;;5042448;28;20820;-68
2024/02/08 09:27:56;;;;;;;15.43;14.73;;;21.10;52.80;;;;;;5042227;28;20484;-68
2024/02/08 09:33:30;;;;;;;14.77;14.37;;;21.00;52.70;;;;;;5160840;27;20548;-68
2024/02/08 09:35:59;;;;;;;14.30;13.90;;;21.00;52.70;;;;;;5141883;27;20859;-68
2024/02/08 09:38:28;;;;;;;15.13;14.63;;;21.00;52.70;;;;;;5138538;27;20429;-67
2024/02/08 09:40:59;;;;;;;14.30;13.90;;;21.00;52.70;;;;;;5138210;27;20516;-68
2024/02/08 09:43:29;;;;;;;14.50;14.03;;;21.00;52.60;;;;;;5141170;27;20479;-68
2024/02/08 09:46:05;;;;;;;15.00;14.40;;;21.00;52.60;;;;;;5141886;27;20444;-67
2024/02/08 09:48:43;;;;;;;14.67;14.17;;;21.00;52.60;;;;;;5130133;27;20436;-66
2024/02/08 09:51:23;;;;;;;15.03;14.50;;;21.00;52.60;;;;;;5138755;27;20445;-67
2024/02/08 09:53:52;;;;;;;14.97;14.57;;;21.00;52.60;;;;;;5141468;27;20466;-67
2024/02/08 09:56:29;;;;;;;14.70;14.30;;;21.00;52.60;;;;;;5139342;27;20467;-67
2024/02/08 09:59:02;;;;;;;14.67;14.17;;;21.00;52.60;;;;;;5137928;27;20936;-66
2024/02/08 10:01:35;;;;;;;14.60;14.20;;;21.00;52.60;;;;;;5129401;27;20541;-67
2024/02/08 10:04:14;;;;;;;15.60;15.10;;;21.00;52.60;;;;;;5137741;27;20460;-67
2024/02/08 10:06:45;;;;;;;15.10;14.60;;;21.00;52.60;;;;;;5130922;27;20437;-66
2024/02/08 10:11:59;;;;;;;14.60;14.20;;;21.00;52.60;;;;;;5140767;27;20458;-67
2024/02/08 10:14:32;;;;;;;15.00;14.60;;;21.00;52.60;;;;;;5137847;27;20461;-67
2024/02/08 10:17:14;;;;;;;14.77;14.33;;;21.00;52.60;;;;;;5137623;27;20479;-67
2024/02/08 10:20:31;;;;;;;13.10;12.80;;;21.00;52.60;;;;;;5130617;27;20531;-67
2024/02/08 10:22:53;;;;;;;15.20;14.70;;;21.00;52.50;;;;;;5130089;27;20512;-66
2024/02/08 10:28:07;;;;;;;15.47;14.90;;;21.00;52.50;;;;;;5141029;27;20934;-67
2024/02/08 10:30:36;;;;;;;14.63;14.23;;;21.00;52.50;;;;;;5129341;27;20846;-67
2024/02/08 10:33:04;;;;;;;14.67;14.17;;;21.00;52.50;;;;;;5137060;27;20881;-67
2024/02/08 10:35:39;;;;;;;15.03;14.53;;;21.00;52.50;;;;;;5128804;27;21043;-67
2024/02/08 10:38:18;;;;;;;14.80;14.40;;;20.90;52.40;;;;;;5137082;27;20509;-67
2024/02/08 10:40:55;;;;;;;14.87;14.47;;;21.00;52.50;;;;;;5140631;27;20813;-67
2024/02/08 10:43:25;;;;;;;15.00;14.60;;;21.00;52.50;;;;;;5131654;27;20831;-67
2024/02/08 10:45:53;;;;;;;14.20;13.80;;;21.00;52.40;;;;;;5123215;27;20433;-67
2024/02/08 10:48:22;;;;;;;13.50;13.20;;;21.00;52.40;;;;;;5125080;27;20442;-67
2024/02/08 10:50:51;;;;;;;12.83;12.53;;;21.00;52.40;;;;;;5126796;27;20429;-66
2024/02/08 10:53:43;;;;;;;14.23;13.83;;;21.00;52.40;;;;;;5124721;27;20583;-67
2024/02/08 10:56:14;;;;;;;14.70;14.20;;;21.00;52.40;;;;;;5122955;27;20491;-67
2024/02/08 10:58:55;;;;;;;15.30;14.90;;;21.00;52.40;;;;;;5115906;27;21021;-67
2024/02/08 11:01:37;;;;;;;14.60;14.20;;;20.90;52.30;;;;;;5125087;27;20445;-67
2024/02/08 11:04:17;;;;;;;15.10;14.60;;;21.00;52.30;;;;;;5126403;27;20815;-67
2024/02/08 11:06:54;;;;;;;14.70;14.30;;;20.90;52.30;;;;;;5126472;27;21004;-67
2024/02/08 11:09:22;;;;;;;15.20;14.80;;;20.90;52.20;;;;;;5124215;27;20448;-67
2024/02/08 11:11:59;;;;;;;13.80;13.40;;;20.90;52.20;;;;;;5122731;27;20573;-67
2024/02/08 11:14:28;;;;;;;14.10;13.60;;;20.90;52.20;;;;;;5125126;27;20984;-67
2024/02/08 11:17:03;;;;;;;14.13;13.73;;;20.90;52.20;;;;;;5126154;27;20948;-67
2024/02/08 11:19:35;;;;;;;13.97;13.67;;;20.90;52.20;;;;;;5122811;27;20433;-67
2024/02/08 11:22:34;;;;;;;14.60;14.20;;;20.90;52.20;;;;;;5122654;27;20434;-67
2024/02/08 11:25:18;;;;;;;14.13;13.73;;;20.90;52.20;;;;;;5117979;27;20465;-67
2024/02/08 11:27:48;;;;;;;14.07;13.67;;;20.90;52.10;;;;;;5115789;27;20442;-67
2024/02/08 11:30:19;;;;;;;14.07;13.67;;;20.90;52.10;;;;;;5123337;27;20450;-67
2024/02/08 11:33:01;;;;;;;13.73;13.43;;;20.90;52.10;;;;;;5125515;27;21018;-67
2024/02/08 11:35:31;;;;;;;14.53;14.10;;;20.90;52.10;;;;;;5122889;27;20450;-67
2024/02/08 11:38:11;;;;;;;13.93;13.53;;;20.90;52.10;;;;;;5122192;27;20441;-66
2024/02/08 11:40:38;;;;;;;13.80;13.50;;;20.90;52.10;;;;;;5114391;27;20433;-67
2024/02/08 11:43:06;;;;;;;14.10;13.70;;;20.90;52.10;;;;;;5122088;27;20484;-67
2024/02/08 11:45:35;;;;;;;14.70;14.30;;;20.90;52.20;;;;;;5125370;27;20437;-67
2024/02/08 11:48:04;;;;;;;14.40;14.00;;;20.90;52.20;;;;;;5125661;27;20443;-67
2024/02/08 11:50:36;;;;;;;14.40;14.00;;;20.90;52.20;;;;;;5122385;27;20473;-67
2024/02/08 11:53:04;;;;;;;14.60;14.20;;;20.90;52.10;;;;;;5122024;27;20481;-67
2024/02/08 11:55:33;;;;;;;14.90;14.40;;;20.90;52.10;;;;;;5123947;27;20437;-67
2024/02/08 11:58:05;;;;;;;14.80;14.40;;;20.90;52.10;;;;;;5125374;27;20443;-67
2024/02/08 12:00:45;;;;;;;14.40;14.00;;;20.90;52.10;;;;;;5122080;27;20476;-67
2024/02/08 12:03:16;;;;;;;14.80;14.40;;;20.90;52.10;;;;;;5121944;27;20549;-68
2024/02/08 12:05:53;;;;;;;13.80;13.50;;;20.90;52.10;;;;;;5125259;27;20437;-67
2024/02/08 12:08:23;;;;;;;14.77;14.37;;;20.90;52.10;;;;;;5123726;27;20511;-67
2024/02/08 12:10:52;;;;;;;14.60;14.20;;;20.90;52.10;;;;;;5121607;27;20587;-67
2024/02/08 12:13:25;;;;;;;14.27;13.87;;;20.90;52.10;;;;;;5122521;27;20508;-67
2024/02/08 12:15:56;;;;;;;14.37;13.97;;;20.90;52.10;;;;;;5125002;27;20498;-67
2024/02/08 12:18:22;;;;;;;15.17;14.77;;;20.90;52.10;;;;;;5123144;27;20954;-67
2024/02/08 12:20:55;;;;;;;14.63;14.23;;;20.90;52.60;;;;;;5121424;27;20442;-67
2024/02/08 12:23:24;;;;;;;15.30;14.80;;;20.90;52.10;;;;;;5122813;27;20461;-67
2024/02/08 12:25:54;;;;;;;14.60;14.20;;;20.90;52.00;;;;;;5124940;27;20436;-66
2024/02/08 12:28:24;;;;;;;15.40;15.00;;;20.90;52.00;;;;;;5123247;27;20475;-67
2024/02/08 12:30:59;;;;;;;14.70;14.30;;;20.90;52.00;;;;;;5121171;27;20854;-67
2024/02/08 12:33:26;;;;;;;14.50;14.10;;;20.90;52.00;;;;;;5123042;27;20486;-67
2024/02/08 12:35:54;;;;;;;15.23;14.83;;;20.90;52.00;;;;;;5124685;27;20476;-67
2024/02/08 12:38:22;;;;;;;15.00;14.60;;;20.90;52.00;;;;;;5123185;27;20468;-66
2024/02/08 12:40:50;;;;;;;16.00;15.50;;;20.90;52.00;;;;;;5121030;27;20860;-66
2024/02/08 12:43:19;;;;;;;15.00;14.60;;;20.90;52.00;;;;;;5121518;27;20929;-67
2024/02/08 12:45:52;;;;;;;15.07;14.67;;;20.90;52.00;;;;;;5124445;27;20520;-67
2024/02/08 12:48:20;;;;;;;15.03;14.60;;;20.90;52.00;;;;;;5123265;27;20814;-67
2024/02/08 12:50:54;;;;;;;15.73;15.33;;;20.90;52.00;;;;;;5120830;27;20528;-67
2024/02/08 12:53:22;;;;;;;14.10;13.70;;;20.90;52.00;;;;;;5121994;27;21045;-67
2024/02/08 12:55:49;;;;;;;14.83;14.43;;;20.90;52.00;;;;;;5124295;27;20440;-67
2024/02/08 12:58:23;;;;;;;15.30;14.90;;;20.90;52.00;;;;;;5123580;27;20788;-67
2024/02/08 13:00:59;;;;;;;15.00;14.60;;;20.90;52.00;;;;;;5120722;27;20861;-67
2024/02/08 13:03:26;;;;;;;14.50;14.10;;;20.90;52.00;;;;;;5122443;27;20979;-67
2024/02/08 13:05:53;;;;;;;14.90;14.50;;;20.90;51.90;;;;;;5123916;27;20954;-67
2024/02/08 13:08:22;;;;;;;15.00;14.60;;;20.90;51.90;;;;;;5122869;27;20932;-67
2024/02/08 13:10:55;;;;;;;15.00;14.60;;;20.90;51.90;;;;;;5120507;27;20921;-66
2024/02/08 13:13:24;;;;;;;15.87;15.47;;;20.90;51.90;;;;;;5121599;27;20486;-67
2024/02/08 13:15:58;;;;;;;14.83;14.33;;;20.90;51.90;;;;;;5124124;27;20524;-66
2024/02/08 13:18:26;;;;;;;14.00;13.70;;;20.90;51.90;;;;;;5122114;27;20447;-67
2024/02/08 13:20:53;;;;;;;13.73;13.43;;;20.90;51.90;;;;;;5120549;27;20445;-67
2024/02/08 13:23:20;;;;;;;13.57;13.27;;;20.90;51.90;;;;;;5121228;27;20486;-67
2024/02/08 13:25:47;;;;;;;14.57;14.17;;;20.90;51.90;;;;;;5123988;27;20472;-67
2024/02/08 13:28:14;;;;;;;13.90;13.50;;;20.90;51.90;;;;;;5123593;27;20436;-66
2024/02/08 13:30:48;;;;;;;13.43;13.03;;;20.90;51.90;;;;;;5120264;27;21002;-67
2024/02/08 13:33:14;;;;;;;13.37;13.07;;;20.90;52.00;;;;;;5120240;28;20848;-67
2024/02/08 13:35:41;;;;;;;13.50;13.10;;;20.80;51.90;;;;;;5123929;27;20444;-66
2024/02/08 13:38:10;;;;;;;13.60;13.20;;;20.90;51.90;;;;;;5123884;27;20490;-67
2024/02/08 13:40:42;;;;;;;13.10;12.70;;;20.90;52.00;;;;;;5118257;27;20438;-66
2024/02/08 13:43:11;;;;;;;13.43;13.03;;;20.90;52.00;;;;;;5119197;28;20514;-70
2024/02/08 13:45:40;;;;;;;12.63;12.33;;;20.90;52.40;;;;;;5123765;28;20516;-70
2024/02/08 13:48:12;;;;;;;13.23;12.83;;;20.90;54.40;;;;;;5123880;27;20950;-71
2024/02/08 13:50:43;;;;;;;13.67;13.27;;;21.00;55.30;;;;;;5099930;28;20780;-70
2024/02/08 13:53:14;;;;;;;13.67;13.27;;;21.00;55.60;;;;;;5115837;27;20489;-71
2024/02/08 13:55:45;;;;;;;14.10;13.60;;;21.00;55.10;;;;;;5112109;27;20442;-68
2024/02/08 13:58:13;;;;;;;14.17;13.87;;;21.00;55.40;;;;;;5120373;28;20445;-67
2024/02/08 14:00:42;;;;;;;13.77;13.37;;;21.10;55.60;;;;;;5105477;28;20943;-69
2024/02/08 14:03:10;;;;;;;14.20;13.80;;;21.10;55.90;;;;;;5120070;28;20449;-68
2024/02/08 14:05:39;;;;;;;14.27;13.67;;;21.10;55.90;;;;;;5120878;27;20469;-68
2024/02/08 14:08:09;;;;;;;13.90;13.50;;;21.10;55.80;;;;;;5119921;27;20472;-69
2024/02/08 14:10:36;;;;;;;12.77;12.47;;;21.20;55.70;;;;;;5123205;28;20486;-73
2024/02/08 14:13:06;;;;;;;13.40;13.00;;;21.20;55.60;;;;;;5123327;27;20480;-69
2024/02/08 14:15:38;;;;;;;13.17;12.67;;;21.10;55.60;;;;;;5120897;27;20534;-68
2024/02/08 14:18:22;;;;;;;12.63;12.23;;;21.20;55.60;;;;;;5119767;27;20441;-72
2024/02/08 14:20:55;;;;;;;11.80;11.30;;;21.20;55.30;;;;;;5116282;27;20434;-66
2024/02/08 14:23:31;;;;;;;13.20;12.80;;;21.30;55.40;;;;;;5132377;27;20246;-69
2024/02/08 14:26:30;;;;;;;13.93;13.33;;;21.30;55.10;;;;;;5115250;27;20494;-69
2024/02/08 14:28:57;;;;;;;13.20;12.90;;;21.40;55.10;;;;;;5123560;27;20946;-68
2024/02/08 14:31:23;;;;;;;13.60;13.00;;;21.40;55.20;;;;;;5127159;27;20491;-69
2024/02/08 14:33:51;;;;;;;12.70;12.30;;;21.40;55.30;;;;;;5127038;27;20508;-70
2024/02/08 14:36:19;;;;;;;12.93;12.63;;;21.50;55.30;;;;;;5122407;27;20445;-70
2024/02/08 14:38:46;;;;;;;14.43;13.60;;;21.40;55.30;;;;;;5123117;27;20463;-69
2024/02/08 14:41:25;;;;;;;13.50;13.10;;;21.50;55.40;;;;;;5123543;27;20491;-72
2024/02/08 14:43:54;;;;;;;13.83;13.43;;;21.50;55.40;;;;;;5116587;27;20472;-68